Wayne, Michigan
Current Conditions -  °F | °C
As of 12:53 PM on Saturday 25 Oct 2014 (Local Time) from KDTW Reporting Station
Overcast Overcast  
Wind Chill: 62°   Ceiling: 2200
Heat Index: 62°   Visibility: 7mi
Dew Point: 52°   Wind: 17mph
Humidity: 70%   Direction: 260°W
Pressure: 29.81"   Gusts: 24mph
Location:  42.28°N, 83.38°W
Report Text: KDTW 251653Z 26015G21KT 7SM OVC022 17/11 A2981 RMK AO2 SLP094 T01670111
Loading
Personal Weather Stations






























Interactive Weather Map
Tropical Storm Tracking
New forecast layout! Learn more

10-Day Weather Forecast

Advertisements
Track Severe Weather on mobile